Time;durP1;ratioP1;P1;durP2;ratioP2;P2;SDS_P1;SDS_P2;PMS_P1;PMS_P2;Temp;Humidity;BMP_temperature;BMP_pressure;BME280_temperature;BME280_humidity;BME280_pressure;Samples;Min_cycle;Max_cycle;Signal;HPM_P1;HPM_P2
2023/06/27 00:01:57;;;;;;;6.60;5.68;;;27.40;43.20;;;;;;6163379;23;20005;-74
2023/06/27 00:04:28;;;;;;;7.32;5.70;;;27.40;43.30;;;;;;6187953;23;20353;-74
2023/06/27 00:06:54;;;;;;;7.65;5.95;;;27.50;43.30;;;;;;6162580;23;20048;-74
2023/06/27 00:09:39;;;;;;;8.90;6.28;;;27.50;43.40;;;;;;6161244;23;20001;-74
2023/06/27 00:12:30;;;;;;;10.40;5.97;;;27.40;43.40;;;;;;6160053;23;20001;-74
2023/06/27 00:14:56;;;;;;;7.57;5.75;;;27.50;43.50;;;;;;6187949;23;20024;-72
2023/06/27 00:17:23;;;;;;;8.10;5.55;;;27.50;43.40;;;;;;6187414;23;20356;-72
2023/06/27 00:19:49;;;;;;;7.95;6.07;;;27.50;44.10;;;;;;6187431;23;20001;-72
2023/06/27 00:22:15;;;;;;;14.25;6.97;;;27.40;43.90;;;;;;6161181;23;20021;-72
2023/06/27 00:24:47;;;;;;;7.63;5.63;;;27.40;43.70;;;;;;6161231;23;19997;-72
2023/06/27 00:27:21;;;;;;;8.40;6.30;;;27.40;43.50;;;;;;6160754;23;20051;-72
2023/06/27 00:29:55;;;;;;;8.95;6.55;;;27.40;44.40;;;;;;6160703;23;20005;-72
2023/06/27 00:32:38;;;;;;;6.82;5.32;;;27.40;44.20;;;;;;6161923;23;20315;-72
2023/06/27 00:35:12;;;;;;;13.65;5.22;;;27.30;43.70;;;;;;6186748;23;20001;-72
2023/06/27 00:37:45;;;;;;;8.85;5.93;;;27.30;43.50;;;;;;6187140;23;20055;-72
2023/06/27 00:40:11;;;;;;;;;;;27.30;43.50;;;;;;6188356;23;20016;-72
2023/06/27 00:42:40;;;;;;;6.90;5.38;;;27.30;43.00;;;;;;6186952;23;19896;-72
2023/06/27 00:45:07;;;;;;;8.18;5.55;;;27.30;43.90;;;;;;6160964;23;19997;-72
2023/06/27 00:47:36;;;;;;;6.65;5.40;;;27.30;43.60;;;;;;6187815;23;19997;-72
2023/06/27 00:50:02;;;;;;;10.18;6.05;;;27.20;43.60;;;;;;6187330;23;19997;-72
2023/06/27 00:52:28;;;;;;;6.57;4.57;;;27.20;43.50;;;;;;6161655;23;20001;-72
2023/06/27 00:54:54;;;;;;;10.05;6.22;;;27.30;43.90;;;;;;6161022;23;19997;-72
2023/06/27 00:57:20;;;;;;;8.70;5.70;;;27.20;44.80;;;;;;6187106;23;20016;-72
2023/06/27 00:59:50;;;;;;;7.60;6.32;;;27.20;46.20;;;;;;6160271;23;20008;-73
2023/06/27 01:02:16;;;;;;;13.60;6.72;;;27.20;46.60;;;;;;6160948;23;20008;-72
2023/06/27 01:04:41;;;;;;;10.32;6.85;;;27.10;48.60;;;;;;6159988;23;20309;-73
2023/06/27 01:07:13;;;;;;;11.57;5.63;;;27.00;49.60;;;;;;6161210;23;20286;-73
2023/06/27 01:09:49;;;;;;;7.25;6.20;;;26.80;50.10;;;;;;6161202;23;20013;-73
2023/06/27 01:12:33;;;;;;;10.82;6.68;;;26.70;48.60;;;;;;6161462;23;20001;-72
2023/06/27 01:15:32;;;;;;;;;;;26.60;48.40;;;;;;6161990;23;20005;-73
2023/06/27 01:17:58;;;;;;;10.63;5.70;;;26.60;46.90;;;;;;6146980;23;19896;-72
2023/06/27 01:20:32;;;;;;;8.40;6.13;;;26.50;48.20;;;;;;6187300;23;20008;-72
2023/06/27 01:23:24;;;;;;;9.02;6.20;;;26.40;48.90;;;;;;6160755;23;19997;-72
2023/06/27 01:25:53;;;;;;;9.77;6.13;;;26.30;48.40;;;;;;6160870;23;19997;-72
2023/06/27 01:28:18;;;;;;;8.48;6.30;;;26.20;48.50;;;;;;6159531;23;20001;-72
2023/06/27 01:30:50;;;;;;;10.30;5.85;;;26.20;48.70;;;;;;6161544;23;20460;-72
2023/06/27 01:33:33;;;;;;;8.75;5.63;;;26.10;49.10;;;;;;6160349;23;20051;-72
2023/06/27 01:36:28;;;;;;;9.13;6.85;;;26.00;49.10;;;;;;6186695;23;20001;-72
2023/06/27 01:39:04;;;;;;;8.25;6.47;;;25.90;49.10;;;;;;6186776;23;20039;-72
2023/06/27 01:41:35;;;;;;;9.05;6.30;;;25.90;49.20;;;;;;6160440;23;20059;-72
2023/06/27 01:44:04;;;;;;;9.48;6.07;;;25.80;49.30;;;;;;6186929;23;19993;-72
2023/06/27 01:46:31;;;;;;;9.98;6.18;;;25.70;49.30;;;;;;6160528;23;20001;-72
2023/06/27 01:48:59;;;;;;;9.00;6.25;;;25.70;51.30;;;;;;6160463;23;20438;-72
2023/06/27 01:51:28;;;;;;;9.43;6.22;;;25.60;49.90;;;;;;6160837;23;20426;-72
2023/06/27 01:53:54;;;;;;;6.85;5.70;;;25.60;49.80;;;;;;6187032;23;20000;-72
2023/06/27 01:56:20;;;;;;;8.73;5.60;;;25.50;50.30;;;;;;6159827;23;19997;-73
2023/06/27 01:58:46;;;;;;;7.20;5.63;;;25.50;49.80;;;;;;6161598;23;20059;-72
2023/06/27 02:01:12;;;;;;;13.65;5.97;;;25.40;50.40;;;;;;6187940;23;20000;-73
2023/06/27 02:03:41;;;;;;;9.27;5.75;;;25.40;50.40;;;;;;6186766;23;19989;-72
2023/06/27 02:06:06;;;;;;;8.77;6.45;;;25.30;51.80;;;;;;6186133;23;20000;-72
2023/06/27 02:08:35;;;;;;;8.25;6.15;;;25.30;50.80;;;;;;6160364;23;19997;-72
2023/06/27 02:11:01;;;;;;;7.28;5.78;;;25.20;50.20;;;;;;6160490;23;20029;-72
2023/06/27 02:13:26;;;;;;;8.13;6.10;;;25.20;50.20;;;;;;6160261;23;19997;-73
2023/06/27 02:15:52;;;;;;;7.65;6.28;;;25.10;50.20;;;;;;6160565;23;20007;-72
2023/06/27 02:18:20;;;;;;;9.30;6.88;;;25.10;50.50;;;;;;6160459;23;20115;-72
2023/06/27 02:20:46;;;;;;;11.77;6.40;;;25.00;51.30;;;;;;6160528;23;20444;-72
2023/06/27 02:23:15;;;;;;;9.73;6.43;;;25.00;50.60;;;;;;6160265;23;19997;-72
2023/06/27 02:25:43;;;;;;;13.50;6.68;;;25.00;50.50;;;;;;6160376;23;20021;-72
2023/06/27 02:28:09;;;;;;;7.97;6.18;;;25.00;50.30;;;;;;6186891;23;19997;-72
2023/06/27 02:30:35;;;;;;;10.35;6.32;;;24.90;50.20;;;;;;6186495;23;20047;-72
2023/06/27 02:33:06;;;;;;;9.35;6.20;;;24.90;50.40;;;;;;6160139;23;20001;-72
2023/06/27 02:35:32;;;;;;;8.55;5.90;;;24.90;50.30;;;;;;6160600;23;20080;-72
2023/06/27 02:37:58;;;;;;;10.77;5.85;;;24.80;50.40;;;;;;6186507;23;20067;-72
2023/06/27 02:40:28;;;;;;;10.10;5.85;;;24.80;50.80;;;;;;6159863;23;20091;-72
2023/06/27 02:42:54;;;;;;;13.55;6.93;;;24.80;50.40;;;;;;6161127;23;19997;-72
2023/06/27 02:45:19;;;;;;;11.90;6.85;;;24.70;50.50;;;;;;6159890;23;20365;-72
2023/06/27 02:47:45;;;;;;;13.25;5.90;;;24.70;51.00;;;;;;6161139;23;20076;-72
2023/06/27 02:50:11;;;;;;;10.07;6.25;;;24.60;50.50;;;;;;6160456;23;20004;-72
2023/06/27 02:52:36;;;;;;;8.30;5.82;;;24.60;50.10;;;;;;6160059;23;20001;-72
2023/06/27 02:55:03;;;;;;;11.98;6.22;;;24.60;50.00;;;;;;6186676;23;20000;-72
2023/06/27 02:57:29;;;;;;;9.68;5.95;;;24.50;50.00;;;;;;6187178;23;20021;-72
2023/06/27 03:00:01;;;;;;;9.55;6.60;;;24.50;50.10;;;;;;6159428;23;20059;-72
2023/06/27 03:02:26;;;;;;;9.98;5.53;;;24.50;50.00;;;;;;6159669;23;20001;-72
2023/06/27 03:04:52;;;;;;;8.00;6.13;;;24.50;50.00;;;;;;6160086;23;20317;-72
2023/06/27 03:07:18;;;;;;;8.57;5.03;;;24.50;50.10;;;;;;6186184;23;20050;-72
2023/06/27 03:09:46;;;;;;;6.75;5.05;;;24.50;49.90;;;;;;6161035;23;20313;-72
2023/06/27 03:12:15;;;;;;;11.65;6.60;;;24.50;49.80;;;;;;6186730;23;20001;-72
2023/06/27 03:14:40;;;;;;;10.50;5.55;;;24.50;50.20;;;;;;6160172;23;20056;-72
2023/06/27 03:17:06;;;;;;;16.15;4.95;;;24.50;49.60;;;;;;6159863;23;19997;-72
2023/06/27 03:19:35;;;;;;;9.32;5.70;;;24.50;49.10;;;;;;6159618;23;20321;-72
2023/06/27 03:22:00;;;;;;;8.55;5.38;;;24.50;49.20;;;;;;6160719;23;20290;-72
2023/06/27 03:24:26;;;;;;;9.25;5.47;;;24.40;49.40;;;;;;6186782;23;20000;-72
2023/06/27 03:26:52;;;;;;;10.57;5.28;;;24.50;49.20;;;;;;6186260;23;19990;-72
2023/06/27 03:29:18;;;;;;;9.73;5.45;;;24.40;48.20;;;;;;6159935;23;20001;-72
2023/06/27 03:31:44;;;;;;;6.65;4.78;;;24.40;48.10;;;;;;6160188;23;20444;-72
2023/06/27 03:34:10;;;;;;;9.07;5.25;;;24.50;49.00;;;;;;6159890;23;19997;-72
2023/06/27 03:36:35;;;;;;;7.90;5.07;;;24.50;48.30;;;;;;6186815;23;20031;-72
2023/06/27 03:39:02;;;;;;;8.40;5.47;;;24.50;47.60;;;;;;6185966;23;20441;-72
2023/06/27 03:41:27;;;;;;;10.60;4.70;;;24.50;48.00;;;;;;6160509;23;20024;-72
2023/06/27 03:43:53;;;;;;;6.25;4.38;;;24.50;48.20;;;;;;6159807;23;19997;-72
2023/06/27 03:46:19;;;;;;;11.30;4.47;;;24.50;47.20;;;;;;6186383;23;20302;-72
2023/06/27 03:48:44;;;;;;;8.32;4.90;;;24.50;46.70;;;;;;6159904;23;20001;-72
2023/06/27 03:51:13;;;;;;;18.95;5.18;;;24.60;46.90;;;;;;6159790;23;20000;-72
2023/06/27 03:53:39;;;;;;;7.85;4.50;;;24.60;46.90;;;;;;6160052;23;20012;-72
2023/06/27 03:56:05;;;;;;;11.45;4.95;;;24.60;45.80;;;;;;6186082;23;20021;-72
2023/06/27 03:58:30;;;;;;;8.30;4.60;;;24.60;45.00;;;;;;6160278;23;20080;-72
2023/06/27 04:01:01;;;;;;;7.50;4.03;;;24.60;44.70;;;;;;6186393;23;19996;-72
2023/06/27 04:03:27;;;;;;;5.63;3.72;;;24.60;44.60;;;;;;6162196;23;20001;-72
2023/06/27 04:05:58;;;;;;;9.45;4.22;;;24.70;45.00;;;;;;6161499;23;20287;-72
2023/06/27 04:08:29;;;;;;;9.30;3.90;;;24.70;45.20;;;;;;6161437;23;20310;-72
2023/06/27 04:10:55;;;;;;;6.22;3.42;;;24.80;44.80;;;;;;6187416;23;20341;-72
2023/06/27 04:13:21;;;;;;;7.13;3.78;;;24.80;44.50;;;;;;6161639;23;20036;-72
2023/06/27 04:15:47;;;;;;;9.95;4.05;;;24.80;44.20;;;;;;6187594;23;20072;-72
2023/06/27 04:18:12;;;;;;;7.95;3.33;;;24.80;43.80;;;;;;6188042;23;20358;-72
2023/06/27 04:20:38;;;;;;;5.88;3.80;;;24.80;43.90;;;;;;6187150;23;20405;-72
2023/06/27 04:23:04;;;;;;;8.50;3.17;;;24.80;44.20;;;;;;6187795;23;19989;-72
2023/06/27 04:25:35;;;;;;;8.18;4.00;;;24.90;44.30;;;;;;6162002;23;20004;-72
2023/06/27 04:28:01;;;;;;;6.85;3.63;;;24.80;44.00;;;;;;6188019;23;19997;-72
2023/06/27 04:30:32;;;;;;;9.32;3.83;;;24.90;44.30;;;;;;6188489;23;20497;-72
2023/06/27 04:32:58;;;;;;;5.15;3.28;;;24.90;43.90;;;;;;6188538;23;20020;-72
2023/06/27 04:35:24;;;;;;;7.13;3.90;;;24.90;44.10;;;;;;6187595;23;19997;-72
2023/06/27 04:37:52;;;;;;;7.13;3.50;;;24.90;43.90;;;;;;6187511;23;20060;-74
2023/06/27 04:40:23;;;;;;;6.35;3.67;;;24.90;43.40;;;;;;6187567;23;20350;-72
2023/06/27 04:42:54;;;;;;;6.00;3.60;;;24.90;43.40;;;;;;6161414;23;20001;-72
2023/06/27 04:45:20;;;;;;;6.43;3.83;;;24.90;43.60;;;;;;6187269;23;20406;-72
2023/06/27 04:47:45;;;;;;;5.55;3.13;;;25.00;43.20;;;;;;6160688;23;19997;-72
2023/06/27 04:50:18;;;;;;;5.18;3.05;;;25.00;43.00;;;;;;6188256;23;20000;-72
2023/06/27 04:52:46;;;;;;;4.40;2.90;;;25.00;42.80;;;;;;6161602;23;19993;-72
2023/06/27 04:55:20;;;;;;;7.43;3.03;;;25.00;42.80;;;;;;6161455;23;20025;-72
2023/06/27 04:57:51;;;;;;;6.07;3.38;;;25.00;42.60;;;;;;6187854;23;20080;-72
2023/06/27 05:00:23;;;;;;;6.65;2.95;;;25.00;42.80;;;;;;6161821;23;20386;-72
2023/06/27 05:03:08;;;;;;;5.40;3.25;;;25.00;42.30;;;;;;6161231;23;20506;-72
2023/06/27 05:05:50;;;;;;;7.05;3.38;;;25.00;42.40;;;;;;6187154;23;19996;-72
2023/06/27 05:08:16;;;;;;;5.47;2.97;;;25.00;42.40;;;;;;6186609;23;20424;-66
2023/06/27 05:10:50;;;;;;;7.38;3.60;;;25.10;42.60;;;;;;6187001;23;20298;-72
2023/06/27 05:13:32;;;;;;;11.27;3.38;;;25.10;42.60;;;;;;6188059;23;19997;-72
2023/06/27 05:16:00;;;;;;;4.88;2.70;;;25.10;42.20;;;;;;6159445;23;20025;-72
2023/06/27 05:18:31;;;;;;;4.65;2.97;;;25.20;42.30;;;;;;6160325;23;20295;-72
2023/06/27 05:21:16;;;;;;;9.80;3.30;;;25.20;42.30;;;;;;6187229;23;20001;-72
2023/06/27 05:23:48;;;;;;;10.60;3.30;;;25.20;42.20;;;;;;6160253;23;19997;-71
2023/06/27 05:26:19;;;;;;;5.70;2.45;;;25.30;42.10;;;;;;6160806;23;20048;-72
2023/06/27 05:28:50;;;;;;;5.75;3.00;;;25.30;42.10;;;;;;6160562;23;19997;-73
2023/06/27 05:31:21;;;;;;;8.35;3.83;;;25.40;42.10;;;;;;6186877;23;19989;-72
2023/06/27 05:33:53;;;;;;;8.07;3.53;;;25.40;41.70;;;;;;6186946;23;20275;-72
2023/06/27 05:36:24;;;;;;;6.95;2.97;;;25.40;41.90;;;;;;6160587;23;20005;-72
2023/06/27 05:38:50;;;;;;;14.15;3.38;;;25.50;42.30;;;;;;6186367;23;20001;-72
2023/06/27 05:41:39;;;;;;;9.93;3.25;;;25.50;41.90;;;;;;6161022;23;20430;-72
2023/06/27 05:44:16;;;;;;;17.80;3.35;;;25.50;41.70;;;;;;6159127;23;20001;-72
2023/06/27 05:47:00;;;;;;;4.60;3.22;;;25.60;41.60;;;;;;6186807;23;20072;-72
2023/06/27 05:49:42;;;;;;;7.45;3.08;;;25.60;41.70;;;;;;6186869;23;19997;-73
2023/06/27 05:52:10;;;;;;;11.77;3.42;;;25.70;41.70;;;;;;6186622;23;20500;-72
2023/06/27 05:54:46;;;;;;;8.88;2.88;;;25.70;41.70;;;;;;6160040;23;19997;-72
2023/06/27 05:57:14;;;;;;;4.45;2.58;;;25.70;41.60;;;;;;6186767;23;20413;-72
2023/06/27 05:59:45;;;;;;;6.63;2.67;;;25.80;41.50;;;;;;6187296;23;20019;-72
2023/06/27 06:02:16;;;;;;;5.50;3.03;;;25.80;41.40;;;;;;6160673;23;20001;-72
2023/06/27 06:04:55;;;;;;;16.42;3.30;;;25.90;41.40;;;;;;6187050;23;20000;-72
2023/06/27 06:07:26;;;;;;;4.20;2.60;;;25.80;41.30;;;;;;6186543;23;19994;-72
2023/06/27 06:10:11;;;;;;;10.77;3.33;;;25.80;41.20;;;;;;6160281;23;20009;-72
2023/06/27 06:12:44;;;;;;;5.60;3.00;;;25.80;41.00;;;;;;6186950;23;20035;-72
2023/06/27 06:15:18;;;;;;;9.05;2.92;;;25.80;41.10;;;;;;6160403;23;20432;-72
2023/06/27 06:17:49;;;;;;;;;;;25.70;41.00;;;;;;6187479;23;20063;-72
2023/06/27 06:20:20;;;;;;;7.70;3.22;;;25.80;41.60;;;;;;6186429;23;19901;-72
2023/06/27 06:22:59;;;;;;;7.47;3.08;;;25.80;41.20;;;;;;6187393;23;20004;-72
2023/06/27 06:25:31;;;;;;;5.60;3.40;;;25.70;41.40;;;;;;6186293;23;20000;-72
2023/06/27 06:28:02;;;;;;;6.43;3.35;;;25.70;41.50;;;;;;6186773;23;20000;-71
2023/06/27 06:30:33;;;;;;;4.18;2.85;;;25.80;41.80;;;;;;6187277;23;20345;-72
2023/06/27 06:33:10;;;;;;;7.15;3.75;;;25.80;41.40;;;;;;6160119;23;20005;-72
2023/06/27 06:35:42;;;;;;;6.22;3.22;;;25.80;41.10;;;;;;6160160;23;20135;-72
2023/06/27 06:38:18;;;;;;;6.55;2.85;;;25.90;41.30;;;;;;6186534;23;20000;-71
2023/06/27 06:40:55;;;;;;;9.10;3.15;;;25.90;41.10;;;;;;6186719;23;20096;-70
2023/06/27 06:43:33;;;;;;;7.72;3.15;;;25.90;41.10;;;;;;6160144;23;19993;-72
2023/06/27 06:45:59;;;;;;;6.25;2.85;;;26.00;41.30;;;;;;6186236;23;20024;-72
2023/06/27 06:48:44;;;;;;;7.38;3.33;;;26.00;41.30;;;;;;6186486;23;19997;-72
2023/06/27 06:51:09;;;;;;;4.15;2.85;;;26.00;41.30;;;;;;6158990;23;20084;-72
2023/06/27 06:53:35;;;;;;;7.25;3.10;;;26.10;41.40;;;;;;6186586;23;20436;-72
2023/06/27 06:56:04;;;;;;;7.22;3.35;;;26.10;41.30;;;;;;6160089;23;20084;-72
2023/06/27 06:58:35;;;;;;;8.32;3.67;;;26.20;41.10;;;;;;6159721;23;19998;-71
2023/06/27 07:01:01;;;;;;;7.05;2.88;;;26.20;41.10;;;;;;6160001;23;20005;-71
2023/06/27 07:03:36;;;;;;;7.22;3.53;;;26.30;41.00;;;;;;6186308;23;20075;-72
2023/06/27 07:06:14;;;;;;;4.30;2.72;;;26.30;40.70;;;;;;6160447;23;19997;-72
2023/06/27 07:08:43;;;;;;;5.50;3.00;;;26.30;41.00;;;;;;6186697;23;20008;-72
2023/06/27 07:11:11;;;;;;;9.70;3.10;;;26.30;41.00;;;;;;6186059;23;20005;-72
2023/06/27 07:13:42;;;;;;;4.28;2.78;;;26.20;40.80;;;;;;6159316;23;20064;-71
2023/06/27 07:16:11;;;;;;;4.68;2.90;;;26.20;41.00;;;;;;6186456;23;20094;-72
2023/06/27 07:18:40;;;;;;;4.45;2.80;;;26.40;41.40;;;;;;6186117;23;20048;-72
2023/06/27 07:21:06;;;;;;;8.32;3.58;;;26.40;41.10;;;;;;6160034;23;20084;-72
2023/06/27 07:23:37;;;;;;;18.60;3.47;;;26.50;40.90;;;;;;6159807;23;20021;-72
2023/06/27 07:26:10;;;;;;;8.88;3.03;;;26.60;40.90;;;;;;6159636;23;19998;-72
2023/06/27 07:28:41;;;;;;;10.15;3.13;;;26.70;41.00;;;;;;6186182;23;20481;-72
2023/06/27 07:31:11;;;;;;;6.05;2.65;;;26.90;40.60;;;;;;6160883;23;19993;-72
2023/06/27 07:33:40;;;;;;;14.13;3.53;;;26.90;40.50;;;;;;6186483;23;20073;-72
2023/06/27 07:36:08;;;;;;;10.82;3.20;;;26.90;40.10;;;;;;6159316;23;20004;-72
2023/06/27 07:38:38;;;;;;;16.63;3.50;;;27.00;40.20;;;;;;6186848;23;20001;-72
2023/06/27 07:41:09;;;;;;;5.88;3.40;;;27.00;40.30;;;;;;6187997;23;19997;-72
2023/06/27 07:43:37;;;;;;;12.90;4.07;;;27.00;40.20;;;;;;6188126;23;20043;-72
2023/06/27 07:46:10;;;;;;;18.73;3.25;;;27.00;40.00;;;;;;6162081;23;20001;-72
2023/06/27 07:48:41;;;;;;;8.60;3.83;;;27.00;40.30;;;;;;6188018;23;20000;-72
2023/06/27 07:51:09;;;;;;;6.82;2.90;;;27.10;40.70;;;;;;6161996;23;20410;-72
2023/06/27 07:53:40;;;;;;;10.90;2.95;;;27.10;40.30;;;;;;6188116;23;20021;-72
2023/06/27 07:56:08;;;;;;;4.47;2.70;;;27.10;40.00;;;;;;6161704;23;20004;-72
2023/06/27 07:58:38;;;;;;;9.30;3.13;;;27.10;39.70;;;;;;6187570;23;20000;-72
2023/06/27 08:01:12;;;;;;;8.40;3.60;;;27.00;39.70;;;;;;6162894;23;20001;-72
2023/06/27 08:03:43;;;;;;;8.10;3.03;;;26.90;39.90;;;;;;6161480;23;20005;-71
2023/06/27 08:06:12;;;;;;;13.02;3.30;;;26.90;40.10;;;;;;6161440;23;20023;-72
2023/06/27 08:08:40;;;;;;;8.15;3.17;;;26.80;40.10;;;;;;6162296;23;20305;-72
2023/06/27 08:11:12;;;;;;;16.55;5.45;;;26.80;40.10;;;;;;6161047;23;20004;-72
2023/06/27 08:13:41;;;;;;;8.52;3.08;;;26.70;40.50;;;;;;6162082;23;20401;-72
2023/06/27 08:16:10;;;;;;;10.48;3.10;;;26.70;40.50;;;;;;6162110;23;20004;-72
2023/06/27 08:18:39;;;;;;;5.72;3.00;;;26.60;40.60;;;;;;6161199;23;19996;-72
2023/06/27 08:21:10;;;;;;;5.43;3.35;;;26.60;40.60;;;;;;6161179;23;20378;-72
2023/06/27 08:23:35;;;;;;;4.25;2.60;;;26.60;40.80;;;;;;6161654;23;20071;-72
2023/06/27 08:26:04;;;;;;;8.10;3.03;;;26.60;40.70;;;;;;6187794;23;20413;-73
2023/06/27 08:28:32;;;;;;;5.20;2.80;;;26.70;40.80;;;;;;6162232;23;20271;-73
2023/06/27 08:30:57;;;;;;;6.30;2.70;;;26.70;40.50;;;;;;6187540;23;20406;-73
2023/06/27 08:33:26;;;;;;;3.45;2.35;;;26.80;40.30;;;;;;6161453;23;19993;-73
2023/06/27 08:36:00;;;;;;;7.07;2.60;;;26.80;40.10;;;;;;6161744;23;19994;-73
2023/06/27 08:38:26;;;;;;;;;;;26.90;40.20;;;;;;6188283;23;20440;-73
2023/06/27 08:40:55;;;;;;;6.13;2.50;;;26.80;40.20;;;;;;6160647;23;19912;-73
2023/06/27 08:43:25;;;;;;;6.03;2.65;;;26.90;39.80;;;;;;6188004;23;19993;-73
2023/06/27 08:45:53;;;;;;;10.40;3.30;;;26.90;39.80;;;;;;6187360;23;20000;-73
2023/06/27 08:48:33;;;;;;;8.73;3.58;;;26.90;39.60;;;;;;6187159;23;19993;-73
2023/06/27 08:51:14;;;;;;;8.43;3.08;;;27.00;39.70;;;;;;6161050;23;20005;-73
2023/06/27 08:53:44;;;;;;;3.50;2.30;;;27.10;39.30;;;;;;6187291;23;20341;-73
2023/06/27 08:56:15;;;;;;;6.78;2.30;;;27.20;39.40;;;;;;6188841;23;20043;-73
2023/06/27 08:58:56;;;;;;;9.30;2.58;;;27.30;39.20;;;;;;6186923;23;20064;-73
2023/06/27 09:01:28;;;;;;;9.98;2.95;;;27.30;38.40;;;;;;6187471;23;20004;-73
2023/06/27 09:04:00;;;;;;;5.07;2.55;;;27.40;38.40;;;;;;6160695;23;19997;-73
2023/06/27 09:06:29;;;;;;;5.88;2.50;;;27.40;38.30;;;;;;6187726;23;19993;-73
2023/06/27 09:09:00;;;;;;;4.40;2.05;;;27.40;38.40;;;;;;6187032;23;20008;-73
2023/06/27 09:11:28;;;;;;;9.73;3.40;;;27.50;38.50;;;;;;6161003;23;20012;-73
2023/06/27 09:13:53;;;;;;;5.25;2.47;;;27.50;38.60;;;;;;6161316;23;20008;-73
2023/06/27 09:16:24;;;;;;;4.63;2.25;;;27.60;38.70;;;;;;6184870;23;20330;-74
2023/06/27 09:18:58;;;;;;;5.47;2.42;;;27.70;37.90;;;;;;6185313;23;19999;-74
2023/06/27 09:21:27;;;;;;;4.30;2.33;;;27.80;37.30;;;;;;6185159;23;20051;-73
2023/06/27 09:23:55;;;;;;;4.55;1.95;;;27.80;37.30;;;;;;6185463;23;20008;-73
2023/06/27 09:26:23;;;;;;;7.35;2.35;;;27.90;37.40;;;;;;6159883;23;20444;-73
2023/06/27 09:28:51;;;;;;;6.72;3.38;;;27.90;37.30;;;;;;6185443;23;20001;-73
2023/06/27 09:31:26;;;;;;;7.93;2.30;;;28.00;37.00;;;;;;6185233;23;19996;-74
2023/06/27 09:34:11;;;;;;;9.75;2.42;;;28.20;36.60;;;;;;6185326;23;20051;-73
2023/06/27 09:36:40;;;;;;;8.73;2.40;;;28.30;36.10;;;;;;6185264;23;20072;-74
2023/06/27 09:39:09;;;;;;;5.55;2.30;;;28.40;35.90;;;;;;6185009;23;20009;-73
2023/06/27 09:41:47;;;;;;;10.30;2.30;;;28.50;35.50;;;;;;6185684;23;20315;-74
2023/06/27 09:44:24;;;;;;;7.25;2.30;;;28.50;35.40;;;;;;6158755;23;19993;-74
2023/06/27 09:46:56;;;;;;;6.15;1.88;;;28.60;35.00;;;;;;6158653;23;19997;-74
2023/06/27 09:49:30;;;;;;;5.72;2.05;;;28.70;34.90;;;;;;6159159;23;20015;-73
2023/06/27 09:51:55;;;;;;;4.70;2.08;;;28.80;34.00;;;;;;6158691;23;19997;-73
2023/06/27 09:54:26;;;;;;;9.00;2.15;;;28.90;33.70;;;;;;6184596;23;19993;-74
2023/06/27 09:56:53;;;;;;;4.15;2.30;;;29.00;34.30;;;;;;6158560;23;20004;-73
2023/06/27 09:59:29;;;;;;;11.75;2.40;;;29.00;34.10;;;;;;6185000;23;20028;-74
2023/06/27 10:02:00;;;;;;;6.75;2.53;;;29.00;33.20;;;;;;6158441;23;20005;-74
2023/06/27 10:04:31;;;;;;;4.90;2.10;;;29.00;33.10;;;;;;6184686;23;20017;-73
2023/06/27 10:06:59;;;;;;;7.57;3.03;;;29.00;32.50;;;;;;6186376;23;20072;-73
2023/06/27 10:09:28;;;;;;;8.75;2.80;;;29.00;33.10;;;;;;6159058;23;20009;-73
2023/06/27 10:11:57;;;;;;;4.03;1.65;;;29.00;32.90;;;;;;6159201;23;19997;-73
2023/06/27 10:14:23;;;;;;;1.88;1.58;;;29.10;33.40;;;;;;6158224;23;20432;-73
2023/06/27 10:16:55;;;;;;;4.50;1.80;;;29.20;33.10;;;;;;6184837;23;19993;-73
2023/06/27 10:19:23;;;;;;;5.13;2.00;;;29.30;32.40;;;;;;6184530;23;20052;-73
2023/06/27 10:21:54;;;;;;;4.38;2.30;;;29.40;32.70;;;;;;6184928;23;19997;-73
2023/06/27 10:24:25;;;;;;;2.85;1.85;;;29.50;32.90;;;;;;6185196;23;20282;-73
2023/06/27 10:26:54;;;;;;;3.08;1.83;;;29.70;31.60;;;;;;6184617;23;20109;-73
2023/06/27 10:29:27;;;;;;;7.10;2.10;;;29.80;29.30;;;;;;6185177;23;19997;-73
2023/06/27 10:31:56;;;;;;;8.48;1.85;;;29.90;28.50;;;;;;6184611;23;20004;-73
2023/06/27 10:34:28;;;;;;;3.60;1.80;;;30.00;28.30;;;;;;6184403;23;20301;-73
2023/06/27 10:37:01;;;;;;;3.30;1.70;;;30.00;28.30;;;;;;6184443;23;20000;-73
2023/06/27 10:39:35;;;;;;;6.25;1.80;;;30.00;27.50;;;;;;6184166;23;20016;-73
2023/06/27 10:42:04;;;;;;;2.80;1.65;;;30.00;27.80;;;;;;6184303;23;20000;-73
2023/06/27 10:44:31;;;;;;;3.80;2.00;;;30.00;27.20;;;;;;6184178;23;19993;-73
2023/06/27 10:47:47;;;;;;;2.85;1.70;;;29.90;27.40;;;;;;6184313;23;20081;-73
2023/06/27 10:50:26;;;;;;;9.25;1.65;;;29.90;28.10;;;;;;6175968;23;20076;-73
2023/06/27 10:53:07;;;;;;;2.70;1.67;;;30.00;28.10;;;;;;6184772;23;20000;-73
2023/06/27 10:55:38;;;;;;;4.47;1.60;;;30.10;27.80;;;;;;6157838;23;20017;-73
2023/06/27 10:58:10;;;;;;;4.35;2.00;;;30.20;27.30;;;;;;6184615;23;19997;-73
2023/06/27 11:00:41;;;;;;;6.85;1.52;;;30.30;27.40;;;;;;6185034;23;20007;-73
2023/06/27 11:03:12;;;;;;;2.90;1.70;;;30.50;26.70;;;;;;6184683;23;20008;-74
2023/06/27 11:05:54;;;;;;;7.68;1.80;;;30.50;26.00;;;;;;6158135;23;20295;-73
2023/06/27 11:08:27;;;;;;;8.52;2.10;;;30.50;26.00;;;;;;6158163;23;20057;-73
2023/06/27 11:11:01;;;;;;;;;;;30.50;26.50;;;;;;6158440;23;20007;-74
2023/06/27 11:13:30;;;;;;;4.45;1.67;;;30.50;27.50;;;;;;6186282;23;19902;-73
2023/06/27 11:15:57;;;;;;;2.25;1.50;;;30.50;25.90;;;;;;6160043;23;20101;-75
2023/06/27 11:18:26;;;;;;;2.92;1.45;;;30.40;26.10;;;;;;6160581;23;20429;-74
2023/06/27 11:20:54;;;;;;;2.38;1.52;;;30.40;26.20;;;;;;6186041;23;20425;-74
2023/06/27 11:23:25;;;;;;;2.88;1.90;;;30.30;26.40;;;;;;6159954;23;20007;-74
2023/06/27 11:25:53;;;;;;;4.03;1.60;;;30.20;26.00;;;;;;6160191;23;20082;-74
2023/06/27 11:28:26;;;;;;;4.90;2.08;;;30.10;25.50;;;;;;6185792;23;20001;-74
2023/06/27 11:31:01;;;;;;;;;;;30.00;25.40;;;;;;6186994;23;20214;-74
2023/06/27 11:33:33;;;;;;;3.15;1.60;;;30.00;26.80;;;;;;6160002;23;19900;-74
2023/06/27 11:36:09;;;;;;;2.53;1.50;;;29.80;25.10;;;;;;6186438;23;20004;-74
2023/06/27 11:38:35;;;;;;;4.35;1.50;;;29.70;25.50;;;;;;6159832;23;20005;-74
2023/06/27 11:41:04;;;;;;;5.85;1.80;;;29.60;25.60;;;;;;6185746;23;20063;-74
2023/06/27 11:43:30;;;;;;;4.43;1.50;;;29.50;25.90;;;;;;6159917;23;20381;-74
2023/06/27 11:46:00;;;;;;;3.22;1.50;;;29.50;25.70;;;;;;6186386;23;20000;-74
2023/06/27 11:48:28;;;;;;;5.75;1.98;;;29.50;26.00;;;;;;6186389;23;20004;-74
2023/06/27 11:50:58;;;;;;;4.05;1.60;;;29.50;26.00;;;;;;6186719;23;20033;-74
2023/06/27 11:53:33;;;;;;;2.65;1.92;;;29.50;25.80;;;;;;6185682;23;20036;-74
2023/06/27 11:56:08;;;;;;;2.92;1.63;;;29.50;26.30;;;;;;6185776;23;20001;-74
2023/06/27 11:58:39;;;;;;;4.90;1.63;;;29.50;26.00;;;;;;6159777;23;20353;-74
2023/06/27 12:01:17;;;;;;;5.57;1.70;;;29.50;25.90;;;;;;6185628;23;20028;-74
2023/06/27 12:03:49;;;;;;;3.30;1.77;;;29.50;26.20;;;;;;6185880;23;20402;-74
2023/06/27 12:06:29;;;;;;;4.07;1.77;;;29.50;26.30;;;;;;6185990;23;20032;-75
2023/06/27 12:09:03;;;;;;;6.55;1.40;;;29.40;26.20;;;;;;6159529;23;19993;-74
2023/06/27 12:11:35;;;;;;;3.47;1.60;;;29.30;26.30;;;;;;6185616;23;20147;-74
2023/06/27 12:14:02;;;;;;;3.03;1.43;;;29.20;26.20;;;;;;6186069;23;19990;-74
2023/06/27 12:16:35;;;;;;;3.83;1.95;;;29.10;26.50;;;;;;6185907;23;19993;-74
2023/06/27 12:19:08;;;;;;;9.82;1.77;;;29.00;26.60;;;;;;6159539;23;20487;-74
2023/06/27 12:21:34;;;;;;;5.28;1.60;;;28.90;27.00;;;;;;6186301;23;20068;-74
2023/06/27 12:24:03;;;;;;;5.60;1.92;;;28.90;26.70;;;;;;6158937;23;20040;-74
2023/06/27 12:26:29;;;;;;;2.15;1.50;;;28.80;26.60;;;;;;6185742;23;20000;-74
2023/06/27 12:29:03;;;;;;;3.13;1.80;;;28.80;27.00;;;;;;6159435;23;19997;-74
2023/06/27 12:31:34;;;;;;;2.47;1.40;;;28.70;27.00;;;;;;6185235;23;20021;-74
2023/06/27 12:33:59;;;;;;;2.88;1.23;;;28.80;27.50;;;;;;6185720;23;20000;-74
2023/06/27 12:36:32;;;;;;;2.78;1.52;;;28.80;27.30;;;;;;6159357;23;20001;-74
2023/06/27 12:39:04;;;;;;;3.33;1.80;;;28.80;27.00;;;;;;6185459;23;20357;-74
2023/06/27 12:41:30;;;;;;;4.28;1.58;;;28.90;26.70;;;;;;6185777;23;20004;-74
2023/06/27 12:44:01;;;;;;;4.15;1.75;;;28.90;26.40;;;;;;6159277;23;20080;-74
2023/06/27 12:46:26;;;;;;;6.20;2.22;;;29.10;26.30;;;;;;6185664;23;20000;-74
2023/06/27 12:48:55;;;;;;;4.32;1.58;;;29.20;25.50;;;;;;6185511;23;19993;-74
2023/06/27 12:51:22;;;;;;;3.67;1.60;;;29.40;25.80;;;;;;6157853;23;20033;-74
2023/06/27 12:53:48;;;;;;;3.50;1.70;;;29.50;25.30;;;;;;6185129;23;19998;-74
2023/06/27 12:56:19;;;;;;;14.35;2.25;;;29.60;25.70;;;;;;6159076;23;20001;-74
2023/06/27 12:58:47;;;;;;;6.40;1.77;;;29.60;25.30;;;;;;6158956;23;19997;-74
2023/06/27 13:01:16;;;;;;;2.72;1.52;;;29.70;25.00;;;;;;6159126;23;20001;-74
2023/06/27 13:03:45;;;;;;;2.17;1.30;;;29.80;25.00;;;;;;6158796;23;19997;-73